createdAt,value
2019-03-26T00:00:02.170Z,5.42
2019-03-26T00:05:06.921Z,5.46
2019-03-26T00:10:02.313Z,5.43
2019-03-26T00:15:03.286Z,5.46
2019-03-26T00:20:03.476Z,5.43
2019-03-26T00:25:03.181Z,5.4
2019-03-26T00:30:02.986Z,5.39
2019-03-26T00:35:04.941Z,5.39
2019-03-26T00:40:05.814Z,5.39
2019-03-26T00:45:03.396Z,5.39
2019-03-26T00:50:05.959Z,5.39
2019-03-26T00:55:05.075Z,5.38
2019-03-26T01:00:03.610Z,5.37
2019-03-26T01:05:04.936Z,5.37
2019-03-26T01:10:05.664Z,5.36
2019-03-26T01:15:03.596Z,5.31
2019-03-26T01:20:04.939Z,5.25
2019-03-26T01:25:05.013Z,5.25
2019-03-26T01:30:02.799Z,5.24
2019-03-26T01:35:04.694Z,5.21
2019-03-26T01:40:04.373Z,5.21
2019-03-26T01:45:03.165Z,5.18
2019-03-26T01:50:05.075Z,5.18
2019-03-26T01:55:03.914Z,5.13
2019-03-26T02:00:05.420Z,5.15
2019-03-26T02:05:04.649Z,5.13
2019-03-26T02:10:03.718Z,5.15
2019-03-26T02:15:03.527Z,5.13
2019-03-26T02:20:04.810Z,5.12
2019-03-26T02:25:09.226Z,5.09
2019-03-26T02:30:04.027Z,5.07
2019-03-26T02:35:17.446Z,5.11
2019-03-26T02:40:02.676Z,5.1
2019-03-26T02:45:04.119Z,5.1
2019-03-26T02:50:04.206Z,5.07
2019-03-26T02:55:04.686Z,5.05
2019-03-26T03:00:03.102Z,5.05
2019-03-26T03:05:04.750Z,5.05
2019-03-26T03:10:04.744Z,5.02
2019-03-26T03:15:02.271Z,4.98
2019-03-26T03:20:05.000Z,4.96
2019-03-26T03:25:07.289Z,4.96
2019-03-26T03:30:05.573Z,4.94
2019-03-26T03:35:07.109Z,4.93
2019-03-26T03:40:08.190Z,4.94
2019-03-26T03:45:03.615Z,4.94
2019-03-26T03:50:05.327Z,4.92
2019-03-26T03:55:06.921Z,4.91
2019-03-26T04:00:05.925Z,4.91
2019-03-26T04:05:07.523Z,4.9
2019-03-26T04:10:02.670Z,4.91
2019-03-26T04:15:02.818Z,4.9
2019-03-26T04:20:06.904Z,4.9
2019-03-26T04:25:05.023Z,4.86
2019-03-26T04:30:03.800Z,4.89
2019-03-26T04:35:04.305Z,4.9
2019-03-26T04:40:05.274Z,4.91
2019-03-26T04:45:02.309Z,4.91
2019-03-26T04:50:05.037Z,4.9
2019-03-26T04:55:05.776Z,4.89
2019-03-26T05:00:02.480Z,4.87
2019-03-26T05:05:05.294Z,4.86
2019-03-26T05:10:02.483Z,4.89
2019-03-26T05:15:02.964Z,4.87
2019-03-26T05:20:03.033Z,4.86
2019-03-26T05:25:03.425Z,4.82
2019-03-26T05:30:02.554Z,4.82
2019-03-26T05:35:02.917Z,4.79
2019-03-26T05:40:03.493Z,4.8
2019-03-26T05:45:03.181Z,4.79
2019-03-26T05:50:06.316Z,4.8
2019-03-26T05:55:04.410Z,4.8
2019-03-26T06:00:02.668Z,4.81
2019-03-26T06:05:04.897Z,4.8
2019-03-26T06:10:03.375Z,4.83
2019-03-26T06:15:04.517Z,4.83
2019-03-26T06:20:05.282Z,4.84
2019-03-26T06:25:05.732Z,4.9
2019-03-26T06:30:04.247Z,4.93
2019-03-26T06:35:05.579Z,5.01
2019-03-26T06:40:04.902Z,5.02
2019-03-26T06:45:02.469Z,5.05
2019-03-26T06:50:04.698Z,5.09
2019-03-26T06:55:04.469Z,5.11
2019-03-26T07:00:02.920Z,5.13
2019-03-26T07:05:04.825Z,5.13
2019-03-26T07:10:03.530Z,5.19
2019-03-26T07:15:03.114Z,5.17
2019-03-26T07:20:03.742Z,5.17
2019-03-26T07:25:04.507Z,5.2
2019-03-26T07:30:02.973Z,5.26
2019-03-26T07:35:04.592Z,5.34
2019-03-26T07:40:05.316Z,5.4
2019-03-26T07:45:02.694Z,5.52
2019-03-26T07:50:04.878Z,5.56
2019-03-26T07:55:05.835Z,5.64
2019-03-26T08:00:02.759Z,5.65
2019-03-26T08:05:06.035Z,5.78
2019-03-26T08:10:04.355Z,5.95
2019-03-26T08:15:03.340Z,6.04
2019-03-26T08:20:04.664Z,5.91
2019-03-26T08:25:05.080Z,5.82
2019-03-26T08:30:02.548Z,5.69
2019-03-26T08:35:04.901Z,5.74
2019-03-26T08:40:04.729Z,5.77
2019-03-26T08:45:03.377Z,5.81
2019-03-26T08:50:04.804Z,5.84
2019-03-26T08:55:04.520Z,5.96
2019-03-26T09:00:01.789Z,5.97
2019-03-26T09:05:04.545Z,6.04
2019-03-26T09:10:04.398Z,6.1
2019-03-26T09:15:03.101Z,6.21
2019-03-26T09:20:03.978Z,6.3
2019-03-26T09:25:05.215Z,6.38
2019-03-26T09:30:02.374Z,6.57
2019-03-26T09:35:03.677Z,6.71
2019-03-26T09:40:04.090Z,7.09
2019-03-26T09:45:02.719Z,7.2
2019-03-26T09:50:03.937Z,7.79
2019-03-26T09:55:04.278Z,8.31
2019-03-26T10:00:01.844Z,8.68
2019-03-26T10:05:03.971Z,8.72
2019-03-26T10:10:04.223Z,8.85
2019-03-26T10:15:01.821Z,8.65
2019-03-26T10:20:04.092Z,8.33
2019-03-26T10:25:05.340Z,7.93
2019-03-26T10:30:05.543Z,7.71
2019-03-26T10:35:04.069Z,7.37
2019-03-26T10:40:04.218Z,7.15
2019-03-26T10:45:01.951Z,7.12
2019-03-26T10:50:04.310Z,7.25
2019-03-26T10:55:04.057Z,7.41
2019-03-26T11:00:02.676Z,7.48
2019-03-26T11:05:02.934Z,7.75
2019-03-26T11:10:03.073Z,7.79
2019-03-26T11:15:03.122Z,7.98
2019-03-26T11:20:03.163Z,8.14
2019-03-26T11:25:03.037Z,8.12
2019-03-26T11:30:02.283Z,8.04
2019-03-26T11:35:03.184Z,7.89
2019-03-26T11:40:02.734Z,7.78
2019-03-26T11:45:02.001Z,7.84
2019-03-26T11:50:04.837Z,7.84
2019-03-26T11:55:04.015Z,7.64
2019-03-26T12:00:04.300Z,7.79
2019-03-26T12:05:04.930Z,7.81
2019-03-26T12:10:03.563Z,7.68
2019-03-26T12:15:02.482Z,7.64
2019-03-26T12:20:04.115Z,7.69
2019-03-26T12:25:04.795Z,7.81
2019-03-26T12:30:03.005Z,8.01
2019-03-26T12:35:03.748Z,8.14
2019-03-26T12:40:04.095Z,8.09
2019-03-26T12:45:06.559Z,8.09
2019-03-26T12:50:03.622Z,8.14
2019-03-26T12:55:03.990Z,8.11
2019-03-26T13:00:02.994Z,8.29
2019-03-26T13:05:03.952Z,8.74
2019-03-26T13:10:13.146Z,8.82
2019-03-26T13:15:02.916Z,8.65
2019-03-26T13:20:04.471Z,8.71
2019-03-26T13:25:04.645Z,8.56
2019-03-26T13:30:02.798Z,8.64
2019-03-26T13:35:04.041Z,8.52
2019-03-26T13:40:05.592Z,8.56
2019-03-26T13:45:03.045Z,8.32
2019-03-26T13:50:05.178Z,8.08
2019-03-26T13:55:04.836Z,7.93
2019-03-26T14:00:02.364Z,7.84
2019-03-26T14:05:05.824Z,7.7
2019-03-26T14:10:04.977Z,7.68
2019-03-26T14:15:02.324Z,7.71
2019-03-26T14:20:04.728Z,7.7
2019-03-26T14:25:04.890Z,7.73
2019-03-26T14:30:02.722Z,7.73
2019-03-26T14:35:03.546Z,7.72
2019-03-26T14:40:04.794Z,7.7
2019-03-26T14:45:03.063Z,7.72
2019-03-26T14:50:04.710Z,7.73
2019-03-26T14:55:04.376Z,7.73
2019-03-26T15:00:02.721Z,7.65
2019-03-26T15:05:04.027Z,7.61
2019-03-26T15:10:04.205Z,7.64
2019-03-26T15:15:03.109Z,7.63
2019-03-26T15:20:05.908Z,7.64
2019-03-26T15:25:05.093Z,7.69
2019-03-26T15:30:02.511Z,7.63
2019-03-26T15:35:05.177Z,7.61
2019-03-26T15:40:03.595Z,7.58
2019-03-26T15:45:02.934Z,7.57
2019-03-26T15:50:03.684Z,7.53
2019-03-26T15:55:03.907Z,7.48
2019-03-26T16:00:03.132Z,7.52
2019-03-26T16:05:04.135Z,7.52
2019-03-26T16:10:04.199Z,7.56
2019-03-26T16:15:03.072Z,7.56
2019-03-26T16:20:04.952Z,7.57
2019-03-26T16:25:06.104Z,7.58
2019-03-26T16:30:02.138Z,7.55
2019-03-26T16:35:05.372Z,7.55
2019-03-26T16:40:04.343Z,7.55
2019-03-26T16:45:02.194Z,7.53
2019-03-26T16:50:05.034Z,7.49
2019-03-26T16:55:04.908Z,7.49
2019-03-26T17:00:02.658Z,7.44
2019-03-26T17:05:04.597Z,7.41
2019-03-26T17:10:04.976Z,7.39
2019-03-26T17:15:02.069Z,7.33
2019-03-26T17:20:04.903Z,7.32
2019-03-26T17:25:03.969Z,7.29
2019-03-26T17:30:02.267Z,7.29
2019-03-26T17:35:03.566Z,7.29
2019-03-26T17:40:03.947Z,7.25
2019-03-26T17:45:02.598Z,7.24
2019-03-26T17:50:03.924Z,7.17
2019-03-26T17:55:05.178Z,7.13
2019-03-26T18:00:02.694Z,7.09
2019-03-26T18:05:04.380Z,7.03
2019-03-26T18:10:04.770Z,6.97
2019-03-26T18:15:02.297Z,6.95
2019-03-26T18:20:03.884Z,6.91
2019-03-26T18:25:04.443Z,6.9
2019-03-26T18:30:02.093Z,6.88
2019-03-26T18:35:03.302Z,6.9
2019-03-26T18:40:03.722Z,6.86
2019-03-26T18:45:01.964Z,6.87
2019-03-26T18:50:03.136Z,6.94
2019-03-26T18:55:05.633Z,6.93
2019-03-26T19:00:02.609Z,6.93
2019-03-26T19:05:04.861Z,6.95
2019-03-26T19:10:05.798Z,6.95
2019-03-26T19:15:03.130Z,6.91
2019-03-26T19:20:04.099Z,6.93
2019-03-26T19:25:06.453Z,6.85
2019-03-26T19:30:02.823Z,6.84
2019-03-26T19:35:04.002Z,6.81
2019-03-26T19:40:05.850Z,6.79
2019-03-26T19:45:03.092Z,6.75
2019-03-26T19:50:04.222Z,6.74
2019-03-26T19:55:05.977Z,6.7
2019-03-26T20:00:03.245Z,6.67
2019-03-26T20:05:04.353Z,6.65
2019-03-26T20:10:05.826Z,6.63
2019-03-26T20:15:02.664Z,6.6
2019-03-26T20:20:04.649Z,6.58
2019-03-26T20:25:05.454Z,6.55
2019-03-26T20:30:02.561Z,6.51
2019-03-26T20:35:04.681Z,6.49
2019-03-26T20:40:05.586Z,6.49
2019-03-26T20:45:02.995Z,6.43
2019-03-26T20:50:05.117Z,6.39
2019-03-26T20:55:04.162Z,6.38
2019-03-26T21:00:02.673Z,6.37
2019-03-26T21:05:05.248Z,6.3
2019-03-26T21:10:02.949Z,6.28
2019-03-26T21:15:05.884Z,6.27
2019-03-26T21:20:04.947Z,6.23
2019-03-26T21:25:05.645Z,6.23
2019-03-26T21:30:10.393Z,6.2
2019-03-26T21:35:04.006Z,6.22
2019-03-26T21:40:03.687Z,6.21
2019-03-26T21:45:02.465Z,6.19
2019-03-26T21:50:04.852Z,6.16
2019-03-26T21:55:04.455Z,6.16
2019-03-26T22:00:02.624Z,6.13
2019-03-26T22:05:04.569Z,6.15
2019-03-26T22:10:04.540Z,6.12
2019-03-26T22:15:03.120Z,6.1
2019-03-26T22:20:04.480Z,6.1
2019-03-26T22:25:04.245Z,6.08
2019-03-26T22:30:02.368Z,6.07
2019-03-26T22:35:04.273Z,6.02
2019-03-26T22:40:04.526Z,6.01
2019-03-26T22:45:02.468Z,6.02
2019-03-26T22:50:04.301Z,6
2019-03-26T22:55:04.949Z,5.98
2019-03-26T23:00:01.866Z,5.93
2019-03-26T23:05:04.973Z,5.95
2019-03-26T23:10:03.996Z,5.95
2019-03-26T23:15:02.655Z,5.99
2019-03-26T23:20:04.540Z,6.04
2019-03-26T23:25:05.062Z,5.99
2019-03-26T23:30:01.977Z,6
2019-03-26T23:35:04.987Z,5.99
2019-03-26T23:40:03.809Z,5.97
2019-03-26T23:45:02.124Z,5.94
2019-03-26T23:50:04.368Z,5.91
2019-03-26T23:55:04.525Z,5.85
